Time;durP1;ratioP1;P1;durP2;ratioP2;P2;SDS_P1;SDS_P2;PMS_P1;PMS_P2;Temp;Humidity;BMP_temperature;BMP_pressure;BME280_temperature;BME280_humidity;BME280_pressure;Samples;Min_cycle;Max_cycle;Signal;HPM_P1;HPM_P2
2023/06/28 00:00:29;;;;;;;6.45;2.60;;;15.00;99.90;;;;;;5054456;28;20045;-63
2023/06/28 00:02:55;;;;;;;5.00;2.97;;;15.00;99.90;;;;;;5054336;28;20120;-63
2023/06/28 00:05:21;;;;;;;7.32;3.75;;;15.00;99.90;;;;;;5053889;28;20051;-63
2023/06/28 00:07:47;;;;;;;4.35;2.85;;;15.00;99.90;;;;;;5053375;28;20112;-65
2023/06/28 00:10:13;;;;;;;4.40;3.00;;;15.00;99.90;;;;;;5053742;28;20064;-65
2023/06/28 00:12:39;;;;;;;5.07;3.70;;;15.00;99.90;;;;;;5054131;28;20045;-65
2023/06/28 00:15:05;;;;;;;5.95;3.55;;;14.90;99.90;;;;;;5053803;28;20049;-65
2023/06/28 00:17:31;;;;;;;8.48;3.80;;;15.00;99.90;;;;;;5054141;28;20052;-63
2023/06/28 00:19:59;;;;;;;7.75;4.53;;;14.90;99.90;;;;;;5053741;28;20041;-64
2023/06/28 00:22:29;;;;;;;4.63;2.90;;;14.90;99.90;;;;;;5053996;28;20116;-64
2023/06/28 00:24:56;;;;;;;6.88;3.45;;;14.90;99.90;;;;;;5052729;28;20048;-64
2023/06/28 00:27:21;;;;;;;6.78;3.30;;;14.90;99.90;;;;;;5052409;28;20044;-64
2023/06/28 00:29:47;;;;;;;6.05;3.70;;;15.00;99.90;;;;;;5053383;28;20452;-64
2023/06/28 00:32:13;;;;;;;5.70;3.60;;;14.90;99.90;;;;;;5052250;28;20084;-65
2023/06/28 00:34:39;;;;;;;5.55;3.88;;;14.90;99.90;;;;;;5053316;28;20057;-64
2023/06/28 00:37:05;;;;;;;4.50;3.38;;;14.90;99.90;;;;;;5053910;28;20045;-64
2023/06/28 00:39:32;;;;;;;5.70;3.47;;;14.90;99.90;;;;;;5053378;28;20197;-63
2023/06/28 00:41:57;;;;;;;5.78;3.10;;;14.90;99.90;;;;;;5053280;28;20481;-63
2023/06/28 00:44:23;;;;;;;7.70;3.85;;;14.90;99.90;;;;;;5053745;28;20041;-65
2023/06/28 00:46:50;;;;;;;5.82;2.90;;;14.90;99.90;;;;;;5053581;28;20439;-63
2023/06/28 00:49:16;;;;;;;6.03;3.97;;;14.90;99.90;;;;;;5053157;28;20432;-64
2023/06/28 00:51:42;;;;;;;5.13;3.30;;;14.90;99.90;;;;;;5053181;28;20041;-64
2023/06/28 00:54:07;;;;;;;6.65;3.60;;;14.90;99.90;;;;;;5053003;28;20045;-64
2023/06/28 00:56:34;;;;;;;6.95;3.95;;;14.90;99.90;;;;;;5053231;28;20041;-64
2023/06/28 00:59:02;;;;;;;8.52;4.28;;;14.80;99.90;;;;;;5053042;28;20578;-64
2023/06/28 01:01:28;;;;;;;5.53;3.90;;;14.80;99.90;;;;;;5053508;28;20103;-64
2023/06/28 01:03:56;;;;;;;9.05;3.75;;;14.80;99.90;;;;;;5052945;28;20072;-65
2023/06/28 01:06:24;;;;;;;8.77;4.07;;;14.80;99.90;;;;;;5053606;28;20103;-64
2023/06/28 01:08:51;;;;;;;5.40;3.67;;;14.70;99.90;;;;;;5052056;28;20053;-64
2023/06/28 01:11:18;;;;;;;7.93;4.20;;;14.70;99.90;;;;;;5036159;28;20057;-67
2023/06/28 01:13:45;;;;;;;6.65;3.40;;;14.70;99.90;;;;;;5053079;28;20076;-65
2023/06/28 01:16:11;;;;;;;9.45;4.38;;;14.70;99.90;;;;;;5052938;28;20071;-64
2023/06/28 01:18:36;;;;;;;4.97;3.63;;;14.70;99.90;;;;;;5053405;28;20449;-66
2023/06/28 01:21:05;;;;;;;6.00;3.92;;;14.70;99.90;;;;;;5053273;28;20628;-64
2023/06/28 01:23:33;;;;;;;5.65;3.97;;;14.70;99.90;;;;;;5052731;28;20111;-65
2023/06/28 01:26:02;;;;;;;9.32;4.53;;;14.70;99.90;;;;;;5052697;28;20051;-63
2023/06/28 01:28:30;;;;;;;7.05;4.95;;;14.70;99.90;;;;;;5052621;28;20055;-65
2023/06/28 01:30:57;;;;;;;7.53;4.97;;;14.70;99.90;;;;;;5052162;28;20077;-63
2023/06/28 01:33:23;;;;;;;7.22;4.97;;;14.60;99.90;;;;;;5052610;28;20444;-64
2023/06/28 01:35:49;;;;;;;7.70;4.82;;;14.70;99.90;;;;;;5052225;28;20053;-66
2023/06/28 01:38:15;;;;;;;5.88;4.10;;;14.60;99.90;;;;;;5052626;28;20061;-64
2023/06/28 01:40:42;;;;;;;6.78;3.85;;;14.60;99.90;;;;;;5051264;28;20048;-63
2023/06/28 01:43:09;;;;;;;5.63;3.95;;;14.60;99.90;;;;;;5052294;28;20091;-63
2023/06/28 01:45:35;;;;;;;10.05;3.92;;;14.60;99.90;;;;;;5052378;28;20045;-64
2023/06/28 01:48:02;;;;;;;10.82;4.32;;;14.60;99.90;;;;;;5052732;28;20390;-65
2023/06/28 01:50:28;;;;;;;6.38;4.28;;;14.60;99.90;;;;;;5052427;28;20096;-63
2023/06/28 01:53:00;;;;;;;5.72;4.75;;;14.50;99.90;;;;;;5052250;28;20060;-63
2023/06/28 01:55:25;;;;;;;9.80;4.57;;;14.60;99.90;;;;;;5052456;28;20033;-63
2023/06/28 01:57:51;;;;;;;5.97;4.20;;;14.50;99.90;;;;;;5052815;28;20048;-64
2023/06/28 02:00:17;;;;;;;7.20;4.68;;;14.50;99.90;;;;;;5052670;28;20045;-64
2023/06/28 02:02:43;;;;;;;6.78;4.13;;;14.50;99.90;;;;;;5051403;28;20084;-63
2023/06/28 02:05:09;;;;;;;6.32;5.10;;;14.40;99.90;;;;;;5052112;28;20033;-63
2023/06/28 02:07:35;;;;;;;4.32;3.65;;;14.50;99.90;;;;;;5051987;28;20128;-64
2023/06/28 02:10:01;;;;;;;6.13;3.83;;;14.50;99.90;;;;;;5052471;28;20077;-64
2023/06/28 02:12:26;;;;;;;6.43;4.28;;;14.50;99.90;;;;;;5052103;28;20049;-64
2023/06/28 02:14:52;;;;;;;7.00;4.53;;;14.50;99.90;;;;;;5052053;28;20144;-64
2023/06/28 02:17:20;;;;;;;4.82;4.22;;;14.50;99.90;;;;;;5052008;28;20047;-64
2023/06/28 02:19:47;;;;;;;6.90;4.32;;;14.50;99.90;;;;;;5052105;28;20053;-64
2023/06/28 02:22:14;;;;;;;6.80;3.78;;;14.50;99.90;;;;;;5052120;28;20115;-64
2023/06/28 02:24:39;;;;;;;5.63;4.75;;;14.50;99.90;;;;;;5050826;28;20522;-64
2023/06/28 02:27:05;;;;;;;6.10;4.32;;;14.40;99.90;;;;;;5052275;28;20087;-64
2023/06/28 02:29:31;;;;;;;13.13;4.97;;;14.40;99.90;;;;;;5052386;28;20456;-63
2023/06/28 02:31:57;;;;;;;5.10;3.90;;;14.40;99.90;;;;;;5051907;28;20132;-63
2023/06/28 02:34:23;;;;;;;10.10;5.45;;;14.50;99.90;;;;;;5051865;28;20075;-63
2023/06/28 02:36:49;;;;;;;6.93;5.28;;;14.50;99.90;;;;;;5051885;28;20053;-63
2023/06/28 02:39:14;;;;;;;7.25;4.65;;;14.50;99.90;;;;;;5051888;28;20052;-64
2023/06/28 02:41:40;;;;;;;10.95;4.90;;;14.50;99.90;;;;;;5052366;28;20144;-66
2023/06/28 02:44:05;;;;;;;9.00;4.70;;;14.50;99.90;;;;;;5050589;28;20036;-65
2023/06/28 02:46:31;;;;;;;4.60;4.18;;;14.50;99.90;;;;;;5051014;28;20076;-63
2023/06/28 02:48:57;;;;;;;5.20;4.18;;;14.50;99.90;;;;;;5051990;28;20041;-65
2023/06/28 02:51:22;;;;;;;5.25;4.10;;;14.50;99.90;;;;;;5050641;28;20063;-63
2023/06/28 02:53:48;;;;;;;7.63;4.75;;;14.50;99.90;;;;;;5054578;28;20052;-65
2023/06/28 02:56:15;;;;;;;7.95;4.78;;;14.60;99.90;;;;;;5054312;28;20128;-63
2023/06/28 02:58:41;;;;;;;7.10;4.55;;;14.60;99.90;;;;;;5055407;28;20454;-65
2023/06/28 03:01:07;;;;;;;10.23;4.47;;;14.60;99.90;;;;;;5055522;28;20076;-66
2023/06/28 03:03:34;;;;;;;5.10;4.45;;;14.60;99.90;;;;;;5055483;28;20472;-63
2023/06/28 03:06:00;;;;;;;6.90;4.82;;;14.60;99.90;;;;;;5055230;28;20144;-66
2023/06/28 03:08:26;;;;;;;9.82;4.28;;;14.60;99.90;;;;;;5054114;28;20480;-67
2023/06/28 03:10:52;;;;;;;8.52;5.50;;;14.70;99.90;;;;;;5054295;28;20099;-66
2023/06/28 03:13:17;;;;;;;8.80;4.88;;;14.70;99.90;;;;;;5055402;28;20461;-64
2023/06/28 03:15:43;;;;;;;10.13;4.82;;;14.70;99.90;;;;;;5055382;28;20428;-65
2023/06/28 03:18:09;;;;;;;6.00;4.75;;;14.70;99.90;;;;;;5054333;28;20076;-65
2023/06/28 03:20:34;;;;;;;7.75;4.38;;;14.70;99.90;;;;;;5055412;28;20496;-64
2023/06/28 03:23:03;;;;;;;11.23;5.18;;;14.70;99.90;;;;;;5054889;28;20366;-63
2023/06/28 03:25:29;;;;;;;8.45;4.65;;;14.70;99.90;;;;;;5054801;28;20041;-62
2023/06/28 03:27:55;;;;;;;6.45;4.38;;;14.70;99.90;;;;;;5054974;28;20041;-63
2023/06/28 03:30:21;;;;;;;6.47;3.35;;;14.70;99.90;;;;;;5054936;28;20080;-66
2023/06/28 03:32:47;;;;;;;5.20;3.60;;;14.70;99.90;;;;;;5054610;28;20383;-67
2023/06/28 03:35:12;;;;;;;7.85;4.88;;;14.80;99.90;;;;;;5054375;28;20060;-65
2023/06/28 03:37:38;;;;;;;6.53;4.13;;;14.80;99.90;;;;;;5054756;28;20049;-63
2023/06/28 03:40:05;;;;;;;6.32;4.50;;;14.80;99.90;;;;;;5053679;28;20439;-64
2023/06/28 03:42:31;;;;;;;4.72;3.60;;;14.80;99.90;;;;;;5054558;28;20178;-63
2023/06/28 03:44:56;;;;;;;7.95;4.57;;;14.80;99.90;;;;;;5053393;28;20036;-65
2023/06/28 03:47:22;;;;;;;4.93;3.50;;;14.80;99.90;;;;;;5055182;28;20044;-63
2023/06/28 03:49:48;;;;;;;4.15;3.60;;;14.90;99.90;;;;;;5054429;28;20430;-64
2023/06/28 03:52:14;;;;;;;7.85;4.05;;;14.90;99.90;;;;;;5054754;28;20128;-65
2023/06/28 03:54:39;;;;;;;6.63;4.88;;;15.00;99.90;;;;;;5053756;28;20445;-63
2023/06/28 03:57:05;;;;;;;5.65;4.38;;;15.00;99.90;;;;;;5054753;28;20464;-65
2023/06/28 03:59:31;;;;;;;6.65;4.18;;;15.00;99.90;;;;;;5054780;28;20045;-63
2023/06/28 04:01:57;;;;;;;7.85;4.40;;;15.00;99.90;;;;;;5054260;28;20503;-65
2023/06/28 04:04:23;;;;;;;5.63;4.13;;;15.00;99.90;;;;;;5036065;28;20063;-63
2023/06/28 04:06:48;;;;;;;6.15;4.45;;;15.10;99.90;;;;;;5053331;28;20063;-66
2023/06/28 04:09:15;;;;;;;4.88;3.95;;;15.10;99.90;;;;;;5054560;28;20090;-64
2023/06/28 04:11:41;;;;;;;4.60;3.80;;;15.10;99.90;;;;;;5053993;28;20080;-66
2023/06/28 04:14:07;;;;;;;4.80;3.72;;;15.20;99.90;;;;;;5054107;28;20041;-65
2023/06/28 04:16:32;;;;;;;7.47;4.15;;;15.20;99.90;;;;;;5069537;28;20367;-66
2023/06/28 04:18:59;;;;;;;5.53;3.05;;;15.20;99.90;;;;;;5054203;28;20373;-64
2023/06/28 04:21:26;;;;;;;7.50;4.78;;;15.20;99.90;;;;;;5053808;28;20538;-67
2023/06/28 04:23:51;;;;;;;5.80;4.13;;;15.30;99.90;;;;;;5053722;28;20120;-64
2023/06/28 04:26:19;;;;;;;8.77;4.88;;;15.30;99.90;;;;;;5052566;28;20171;-65
2023/06/28 04:28:45;;;;;;;10.00;4.70;;;15.30;99.90;;;;;;5052601;28;20052;-66
2023/06/28 04:31:10;;;;;;;4.75;3.60;;;15.30;99.90;;;;;;5053622;28;20041;-66
2023/06/28 04:33:36;;;;;;;6.47;4.80;;;15.40;99.90;;;;;;5036162;28;20048;-65
2023/06/28 04:36:02;;;;;;;5.07;3.03;;;15.40;99.90;;;;;;5054077;28;20057;-65
2023/06/28 04:38:32;;;;;;;6.68;4.20;;;15.40;99.90;;;;;;5054016;28;20106;-65
2023/06/28 04:40:58;;;;;;;6.63;4.32;;;15.40;99.90;;;;;;5053433;28;20056;-64
2023/06/28 04:43:24;;;;;;;7.32;4.15;;;15.50;99.90;;;;;;5053590;28;20076;-64
2023/06/28 04:45:50;;;;;;;6.82;5.30;;;15.50;99.90;;;;;;5053632;28;20060;-66
2023/06/28 04:48:15;;;;;;;7.53;4.03;;;15.50;99.90;;;;;;5053365;28;20048;-65
2023/06/28 04:50:41;;;;;;;6.60;4.22;;;15.50;99.90;;;;;;5053656;28;20040;-67
2023/06/28 04:53:07;;;;;;;6.15;3.92;;;15.50;99.90;;;;;;5053517;28;20449;-66
2023/06/28 04:55:34;;;;;;;6.40;4.35;;;15.50;99.90;;;;;;5053165;28;20137;-67
2023/06/28 04:58:04;;;;;;;4.32;3.00;;;15.50;99.90;;;;;;5053519;28;20045;-65
2023/06/28 05:00:30;;;;;;;5.85;3.63;;;15.60;99.90;;;;;;5052999;28;20045;-65
2023/06/28 05:02:57;;;;;;;4.50;3.78;;;15.60;99.90;;;;;;5051589;28;20086;-66
2023/06/28 05:05:29;;;;;;;5.57;4.20;;;15.60;99.90;;;;;;5052793;28;20044;-65
2023/06/28 05:07:56;;;;;;;6.93;4.55;;;15.60;99.90;;;;;;5053040;28;20095;-65
2023/06/28 05:10:23;;;;;;;3.88;3.47;;;15.60;99.90;;;;;;5051639;28;20048;-66
2023/06/28 05:12:51;;;;;;;5.15;3.85;;;15.50;99.90;;;;;;5052889;28;20044;-65
2023/06/28 05:15:18;;;;;;;6.55;3.60;;;15.60;99.90;;;;;;5051174;28;20142;-65
2023/06/28 05:17:43;;;;;;;7.47;3.50;;;15.60;99.90;;;;;;5052071;28;20057;-64
2023/06/28 05:20:10;;;;;;;6.38;3.60;;;15.60;99.90;;;;;;5053118;28;20052;-67
2023/06/28 05:22:43;;;;;;;4.30;3.17;;;15.70;99.90;;;;;;5052809;28;20179;-66
2023/06/28 05:25:09;;;;;;;4.68;2.92;;;15.80;99.90;;;;;;5052538;28;20052;-64
2023/06/28 05:27:34;;;;;;;4.03;3.63;;;15.80;99.90;;;;;;5052699;28;20041;-66
2023/06/28 05:30:00;;;;;;;7.90;4.50;;;15.90;99.90;;;;;;5052336;28;20102;-65
2023/06/28 05:32:26;;;;;;;3.60;3.30;;;15.90;99.90;;;;;;5051493;28;20048;-65
2023/06/28 05:34:51;;;;;;;3.83;3.20;;;15.90;99.90;;;;;;5051971;28;20497;-63
2023/06/28 05:37:17;;;;;;;4.80;3.00;;;15.90;99.90;;;;;;5052266;28;20055;-64
2023/06/28 05:39:43;;;;;;;5.25;2.97;;;16.00;99.90;;;;;;5052362;28;20057;-63
2023/06/28 05:42:08;;;;;;;3.83;3.00;;;16.10;99.90;;;;;;5052189;28;20450;-64
2023/06/28 05:44:34;;;;;;;3.92;3.42;;;16.10;99.90;;;;;;5052039;28;20049;-63
2023/06/28 05:47:00;;;;;;;9.00;3.05;;;16.20;99.90;;;;;;5052516;28;20498;-64
2023/06/28 05:49:25;;;;;;;6.03;3.40;;;16.30;99.90;;;;;;5051076;28;20116;-65
2023/06/28 05:51:51;;;;;;;4.63;2.63;;;16.40;99.90;;;;;;5052564;28;20048;-64
2023/06/28 05:54:17;;;;;;;9.68;3.90;;;16.50;99.90;;;;;;5052297;28;20446;-65
2023/06/28 05:56:43;;;;;;;6.55;3.38;;;16.50;99.90;;;;;;5052506;28;20057;-64
2023/06/28 05:59:09;;;;;;;5.15;3.30;;;16.70;99.90;;;;;;5051518;28;20053;-64
2023/06/28 06:01:35;;;;;;;4.43;3.10;;;16.70;99.90;;;;;;5052031;28;20059;-64
2023/06/28 06:04:00;;;;;;;4.70;3.47;;;16.80;99.90;;;;;;5051836;28;20049;-64
2023/06/28 06:06:26;;;;;;;6.93;3.70;;;16.80;99.90;;;;;;5034375;28;20076;-64
2023/06/28 06:08:52;;;;;;;5.50;4.10;;;17.00;99.90;;;;;;5052059;28;20037;-65
2023/06/28 06:11:17;;;;;;;8.00;4.38;;;17.00;99.90;;;;;;5051630;28;20508;-64
2023/06/28 06:13:43;;;;;;;6.43;3.33;;;17.10;99.90;;;;;;5051876;28;20056;-64
2023/06/28 06:16:09;;;;;;;4.40;3.75;;;17.10;99.90;;;;;;5052080;28;20124;-64
2023/06/28 06:18:36;;;;;;;6.95;3.42;;;17.10;99.90;;;;;;5051885;28;20128;-64
2023/06/28 06:21:02;;;;;;;6.78;3.60;;;17.10;99.90;;;;;;5051975;28;20053;-64
2023/06/28 06:23:28;;;;;;;10.05;3.83;;;17.20;99.90;;;;;;5051841;28;20086;-64
2023/06/28 06:25:54;;;;;;;4.88;3.90;;;17.20;99.90;;;;;;5051746;28;20052;-65
2023/06/28 06:28:19;;;;;;;5.18;3.40;;;17.20;99.90;;;;;;5054549;28;20053;-66
2023/06/28 06:30:45;;;;;;;6.03;3.80;;;17.20;99.90;;;;;;5056174;28;20052;-65
2023/06/28 06:33:11;;;;;;;6.20;3.97;;;17.20;99.90;;;;;;5056126;28;20128;-65
2023/06/28 06:35:37;;;;;;;4.10;3.47;;;17.20;99.90;;;;;;5055651;28;20468;-64
2023/06/28 06:38:03;;;;;;;13.43;5.05;;;17.30;99.90;;;;;;5055712;28;20041;-64
2023/06/28 06:40:28;;;;;;;7.10;4.97;;;17.30;99.90;;;;;;5056114;28;20048;-65
2023/06/28 06:42:54;;;;;;;6.72;4.53;;;17.30;99.90;;;;;;5055628;28;20124;-66
2023/06/28 06:45:20;;;;;;;7.32;5.25;;;17.40;99.90;;;;;;5055673;28;20049;-65
2023/06/28 06:47:46;;;;;;;4.95;3.95;;;17.40;99.90;;;;;;5055600;28;20044;-65
2023/06/28 06:50:13;;;;;;;8.10;5.30;;;17.40;99.90;;;;;;5056047;28;20047;-65
2023/06/28 06:52:39;;;;;;;8.32;4.82;;;17.40;99.90;;;;;;5055599;28;20077;-65
2023/06/28 06:55:05;;;;;;;7.97;4.47;;;17.40;99.90;;;;;;5055533;28;20045;-65
2023/06/28 06:57:31;;;;;;;12.15;5.43;;;17.40;99.90;;;;;;5054585;28;20041;-64
2023/06/28 06:59:57;;;;;;;7.93;5.05;;;17.50;99.90;;;;;;5055484;28;20090;-65
2023/06/28 07:02:23;;;;;;;8.10;4.82;;;17.60;99.90;;;;;;5055411;28;20389;-66
2023/06/28 07:04:49;;;;;;;8.82;5.55;;;17.60;99.90;;;;;;5055786;28;20498;-65
2023/06/28 07:07:15;;;;;;;9.13;5.45;;;17.60;99.90;;;;;;5037721;28;20115;-67
2023/06/28 07:09:41;;;;;;;11.40;5.50;;;17.50;99.90;;;;;;5055194;28;20053;-65
2023/06/28 07:12:07;;;;;;;8.00;4.70;;;17.50;99.90;;;;;;5055091;28;20044;-65
2023/06/28 07:14:33;;;;;;;10.32;5.15;;;17.50;99.90;;;;;;5055492;28;20052;-64
2023/06/28 07:16:59;;;;;;;6.43;4.93;;;17.40;99.90;;;;;;5055503;28;20405;-65
2023/06/28 07:19:25;;;;;;;7.40;5.40;;;17.40;99.90;;;;;;5055539;28;20048;-65
2023/06/28 07:21:50;;;;;;;6.68;5.22;;;17.40;99.90;;;;;;5055411;28;20060;-66
2023/06/28 07:24:16;;;;;;;10.25;5.53;;;17.40;99.90;;;;;;5055299;28;20041;-66
2023/06/28 07:26:42;;;;;;;9.48;5.20;;;17.40;99.90;;;;;;5054887;28;20041;-66
2023/06/28 07:29:07;;;;;;;13.48;6.15;;;17.30;99.90;;;;;;5054988;28;20064;-68
2023/06/28 07:31:33;;;;;;;12.05;5.53;;;17.30;99.90;;;;;;5053949;28;20052;-67
2023/06/28 07:34:04;;;;;;;12.18;5.93;;;17.30;99.90;;;;;;5053659;28;20485;-67
2023/06/28 07:36:31;;;;;;;15.60;6.05;;;17.30;99.90;;;;;;5055190;28;20049;-68
2023/06/28 07:38:57;;;;;;;17.42;7.10;;;17.30;99.90;;;;;;5053536;28;20477;-68
2023/06/28 07:41:22;;;;;;;9.93;5.32;;;17.40;99.90;;;;;;5054487;28;20189;-67
2023/06/28 07:43:49;;;;;;;12.88;6.82;;;17.40;99.90;;;;;;5054629;28;20366;-67
2023/06/28 07:46:15;;;;;;;9.48;6.30;;;17.40;99.90;;;;;;5054477;28;20070;-67
2023/06/28 07:48:41;;;;;;;9.25;6.28;;;17.40;99.90;;;;;;5054597;28;20049;-68
2023/06/28 07:51:07;;;;;;;8.45;6.60;;;17.40;99.90;;;;;;5054358;28;20512;-68
2023/06/28 07:53:33;;;;;;;8.50;6.05;;;17.40;99.90;;;;;;5036583;28;20056;-67
2023/06/28 07:55:58;;;;;;;9.00;6.55;;;17.40;99.90;;;;;;5054663;28;20045;-68
2023/06/28 07:58:24;;;;;;;11.35;6.45;;;17.40;99.90;;;;;;5053176;28;20501;-68
2023/06/28 08:00:50;;;;;;;8.02;6.07;;;17.40;99.90;;;;;;5053152;28;20470;-67
2023/06/28 08:03:15;;;;;;;10.80;7.40;;;17.30;99.90;;;;;;5053025;28;20091;-67
2023/06/28 08:05:42;;;;;;;14.07;8.18;;;17.20;99.90;;;;;;5052774;28;20041;-68
2023/06/28 08:08:07;;;;;;;10.63;7.05;;;17.20;99.90;;;;;;5054137;28;20059;-68
2023/06/28 08:10:33;;;;;;;13.52;7.35;;;17.30;99.90;;;;;;5053994;28;20049;-68
2023/06/28 08:12:59;;;;;;;10.18;6.60;;;17.40;99.90;;;;;;5053938;28;20045;-68
2023/06/28 08:15:25;;;;;;;8.27;7.10;;;17.50;99.90;;;;;;5053870;28;20135;-68
2023/06/28 08:17:50;;;;;;;8.75;7.10;;;17.60;99.90;;;;;;5053982;28;20041;-68
2023/06/28 08:20:17;;;;;;;11.77;7.20;;;17.70;99.90;;;;;;5053939;28;20451;-69
2023/06/28 08:22:42;;;;;;;10.15;6.93;;;17.80;99.90;;;;;;5053834;28;20037;-67
2023/06/28 08:25:08;;;;;;;7.60;6.78;;;17.80;99.90;;;;;;5053721;28;20045;-68
2023/06/28 08:27:34;;;;;;;10.32;7.88;;;17.90;99.90;;;;;;5054092;28;20049;-68
2023/06/28 08:30:00;;;;;;;7.70;6.47;;;18.00;99.90;;;;;;5053822;28;20550;-68
2023/06/28 08:32:25;;;;;;;15.13;6.60;;;18.10;99.90;;;;;;5054202;28;20477;-68
2023/06/28 08:34:51;;;;;;;8.65;6.63;;;18.10;99.90;;;;;;5052149;28;20053;-67
2023/06/28 08:37:17;;;;;;;9.45;6.95;;;18.20;99.90;;;;;;5053389;28;20049;-68
2023/06/28 08:39:43;;;;;;;7.68;6.40;;;18.30;99.90;;;;;;5052703;28;20136;-68
2023/06/28 08:42:09;;;;;;;12.77;6.47;;;18.30;99.90;;;;;;5053146;28;20075;-68
2023/06/28 08:44:38;;;;;;;10.10;7.32;;;18.30;99.90;;;;;;5053245;28;20041;-69
2023/06/28 08:47:05;;;;;;;10.20;6.57;;;18.30;99.90;;;;;;5052250;28;20126;-67
2023/06/28 08:49:32;;;;;;;13.70;7.13;;;18.20;99.90;;;;;;5052528;28;20044;-67
2023/06/28 08:51:59;;;;;;;8.80;6.22;;;18.30;99.90;;;;;;5035191;28;20061;-67
2023/06/28 08:54:28;;;;;;;10.73;6.50;;;18.40;99.90;;;;;;5052097;28;20053;-68
2023/06/28 08:56:57;;;;;;;8.90;6.72;;;18.40;99.90;;;;;;5053161;28;20070;-68
2023/06/28 08:59:23;;;;;;;7.22;6.32;;;18.40;99.90;;;;;;5051837;28;20148;-68
2023/06/28 09:01:54;;;;;;;8.68;6.72;;;18.40;99.90;;;;;;5052236;28;20564;-68
2023/06/28 09:04:28;;;;;;;8.60;6.55;;;18.40;99.90;;;;;;5052474;28;20493;-68
2023/06/28 09:06:56;;;;;;;9.10;6.72;;;18.50;99.90;;;;;;5052926;28;20123;-68
2023/06/28 09:09:23;;;;;;;10.48;6.88;;;18.60;99.90;;;;;;5052967;28;20064;-69
2023/06/28 09:11:50;;;;;;;8.35;6.47;;;18.60;99.90;;;;;;5052914;28;20053;-68
2023/06/28 09:14:16;;;;;;;7.85;6.18;;;18.70;99.90;;;;;;5053056;28;20041;-68
2023/06/28 09:16:41;;;;;;;9.85;7.05;;;18.60;99.90;;;;;;5053020;28;20171;-70
2023/06/28 09:19:07;;;;;;;10.55;7.35;;;18.50;99.90;;;;;;5051806;28;20048;-69
2023/06/28 09:21:33;;;;;;;10.85;7.07;;;18.40;99.90;;;;;;5052662;28;20048;-68
2023/06/28 09:24:00;;;;;;;8.40;7.20;;;18.50;99.90;;;;;;5051394;28;20138;-67
2023/06/28 09:26:30;;;;;;;10.85;6.82;;;18.40;99.90;;;;;;5052383;28;20077;-69
2023/06/28 09:29:11;;;;;;;8.82;6.88;;;18.40;99.90;;;;;;5052744;28;20385;-68
2023/06/28 09:31:47;;;;;;;9.75;7.45;;;18.30;99.90;;;;;;5052503;28;20123;-68
2023/06/28 09:34:13;;;;;;;7.38;6.63;;;18.30;99.90;;;;;;5051936;28;20048;-68
2023/06/28 09:36:39;;;;;;;10.75;7.47;;;18.30;99.90;;;;;;5052470;28;20133;-69
2023/06/28 09:39:05;;;;;;;8.93;7.68;;;18.40;99.90;;;;;;5053125;28;20447;-68
2023/06/28 09:41:41;;;;;;;9.50;7.28;;;18.40;99.90;;;;;;5051543;28;20062;-68
2023/06/28 09:44:11;;;;;;;8.13;6.93;;;18.50;99.90;;;;;;5051089;28;20045;-68
2023/06/28 09:46:47;;;;;;;11.27;7.90;;;18.60;99.90;;;;;;5034862;28;20409;-68
2023/06/28 09:49:24;;;;;;;13.50;8.35;;;18.60;99.90;;;;;;5052366;28;20048;-68
2023/06/28 09:52:02;;;;;;;12.00;8.85;;;18.50;99.90;;;;;;5052169;28;20052;-69
2023/06/28 09:54:30;;;;;;;12.85;9.50;;;18.50;99.90;;;;;;5052287;28;20048;-69
2023/06/28 09:56:56;;;;;;;10.82;8.70;;;18.60;99.90;;;;;;5052795;28;20052;-69
2023/06/28 09:59:25;;;;;;;11.50;8.15;;;18.60;99.90;;;;;;5052203;28;20060;-68
2023/06/28 10:01:51;;;;;;;11.57;9.68;;;18.60;99.90;;;;;;5050792;28;20144;-69
2023/06/28 10:04:19;;;;;;;10.75;9.25;;;18.50;99.90;;;;;;5051721;28;20503;-69
2023/06/28 10:06:46;;;;;;;13.90;9.73;;;18.60;99.90;;;;;;5052593;28;20049;-69
2023/06/28 10:09:16;;;;;;;12.68;10.18;;;18.50;99.90;;;;;;5052151;28;20422;-69
2023/06/28 10:11:44;;;;;;;11.02;8.82;;;18.50;99.90;;;;;;5052199;28;20049;-69
2023/06/28 10:14:12;;;;;;;16.15;10.85;;;18.50;99.90;;;;;;5052658;28;20041;-69
2023/06/28 10:16:40;;;;;;;13.63;10.50;;;18.50;99.90;;;;;;5051958;28;20037;-69
2023/06/28 10:19:09;;;;;;;14.63;10.75;;;18.50;99.90;;;;;;5052021;28;20060;-69
2023/06/28 10:21:35;;;;;;;15.25;10.60;;;18.50;99.90;;;;;;5052023;28;20128;-70
2023/06/28 10:24:03;;;;;;;20.38;10.82;;;18.50;99.90;;;;;;5051979;28;20049;-70
2023/06/28 10:26:30;;;;;;;14.32;10.85;;;18.50;99.90;;;;;;5051858;28;20389;-69
2023/06/28 10:28:57;;;;;;;15.75;10.57;;;18.50;99.90;;;;;;5051124;28;20048;-68
2023/06/28 10:31:23;;;;;;;14.07;9.82;;;18.60;99.90;;;;;;5051510;28;20085;-68
2023/06/28 10:33:50;;;;;;;17.17;11.43;;;18.70;99.90;;;;;;5052086;28;20049;-69
2023/06/28 10:36:16;;;;;;;13.18;11.35;;;18.70;99.90;;;;;;5050650;28;20397;-66
2023/06/28 10:38:43;;;;;;;11.90;9.25;;;18.80;99.90;;;;;;5052019;28;20053;-69
2023/06/28 10:41:14;;;;;;;19.77;13.88;;;18.70;99.90;;;;;;5050664;28;20064;-69
2023/06/28 10:43:40;;;;;;;16.20;12.68;;;18.80;99.90;;;;;;5052334;28;20125;-68
2023/06/28 10:46:36;;;;;;;17.48;11.75;;;18.90;99.90;;;;;;5051724;28;20100;-70
2023/06/28 10:49:03;;;;;;;20.70;13.40;;;18.80;99.90;;;;;;5039245;28;20057;-71
2023/06/28 10:51:34;;;;;;;15.60;11.90;;;18.80;99.90;;;;;;5052035;28;20045;-69
2023/06/28 10:54:10;;;;;;;16.65;11.70;;;18.90;99.90;;;;;;5051748;28;20458;-69
2023/06/28 10:56:49;;;;;;;16.17;11.90;;;18.80;99.90;;;;;;5051777;28;20041;-69
2023/06/28 10:59:15;;;;;;;15.98;11.07;;;18.70;99.90;;;;;;5052055;28;20055;-69
2023/06/28 11:01:53;;;;;;;20.73;12.70;;;18.70;99.90;;;;;;5051777;28;20049;-69
2023/06/28 11:04:23;;;;;;;13.68;11.13;;;18.60;99.90;;;;;;5051639;28;20053;-69
2023/06/28 11:07:18;;;;;;;16.30;12.90;;;18.70;99.90;;;;;;5050452;28;20053;-71
2023/06/28 11:10:14;;;;;;;17.48;11.43;;;18.70;99.90;;;;;;5038158;28;20053;-69
2023/06/28 11:12:40;;;;;;;18.60;11.90;;;18.70;99.90;;;;;;5051472;28;20529;-70
2023/06/28 11:15:13;;;;;;;17.48;12.25;;;18.70;99.90;;;;;;5054860;28;20084;-68
2023/06/28 11:17:39;;;;;;;13.65;11.18;;;18.70;99.90;;;;;;5055015;28;20088;-69
2023/06/28 11:20:11;;;;;;;17.17;13.10;;;18.70;99.90;;;;;;5054939;28;20056;-68
2023/06/28 11:23:06;;;;;;;14.53;10.70;;;18.70;99.90;;;;;;5055006;28;20087;-70
2023/06/28 11:25:32;;;;;;;16.50;11.63;;;18.70;99.90;;;;;;5041802;28;20314;-70
2023/06/28 11:27:58;;;;;;;17.77;11.93;;;18.80;99.90;;;;;;5054848;28;20132;-69
2023/06/28 11:30:46;;;;;;;13.18;10.13;;;18.80;99.90;;;;;;5054260;28;20102;-69
2023/06/28 11:33:12;;;;;;;16.13;10.73;;;18.80;99.90;;;;;;5055411;28;20049;-68
2023/06/28 11:35:39;;;;;;;13.55;10.40;;;18.80;99.90;;;;;;5054655;28;20095;-68
2023/06/28 11:38:07;;;;;;;14.50;11.13;;;18.80;99.90;;;;;;5054688;28;20052;-69
2023/06/28 11:40:33;;;;;;;16.30;10.77;;;18.90;99.90;;;;;;5054798;28;20071;-68
2023/06/28 11:42:59;;;;;;;16.25;11.60;;;18.90;99.90;;;;;;5054932;28;20053;-69
2023/06/28 11:45:27;;;;;;;14.55;10.70;;;18.90;99.90;;;;;;5054622;28;20048;-68
2023/06/28 11:47:53;;;;;;;13.38;10.30;;;18.90;99.90;;;;;;5054490;28;20056;-68
2023/06/28 11:50:19;;;;;;;12.45;9.68;;;19.00;99.90;;;;;;5055097;28;20045;-68
2023/06/28 11:52:48;;;;;;;15.45;10.25;;;19.10;99.90;;;;;;5054514;28;20466;-69
2023/06/28 11:55:15;;;;;;;17.00;12.07;;;19.20;99.90;;;;;;5054339;28;20052;-69
2023/06/28 11:57:47;;;;;;;12.88;11.07;;;19.30;99.90;;;;;;5054932;28;20060;-69
2023/06/28 12:00:14;;;;;;;13.15;10.82;;;19.20;99.90;;;;;;5053328;28;20045;-69
2023/06/28 12:02:50;;;;;;;14.90;10.43;;;19.20;99.90;;;;;;5053262;28;20103;-69
2023/06/28 12:05:18;;;;;;;12.00;10.25;;;19.20;99.90;;;;;;5054196;28;20123;-70
2023/06/28 12:07:46;;;;;;;12.23;10.90;;;19.10;99.90;;;;;;5053106;28;20053;-69
2023/06/28 12:10:11;;;;;;;12.52;10.93;;;19.20;99.90;;;;;;5053289;28;20048;-69
2023/06/28 12:12:41;;;;;;;14.63;9.75;;;19.20;99.90;;;;;;5053116;28;20080;-69
2023/06/28 12:15:12;;;;;;;13.85;11.18;;;19.20;99.90;;;;;;5053027;28;20053;-68
2023/06/28 12:17:42;;;;;;;14.75;10.40;;;19.10;99.90;;;;;;5053386;28;20068;-69
2023/06/28 12:20:09;;;;;;;14.57;10.77;;;19.20;99.90;;;;;;5054108;28;20102;-70
2023/06/28 12:22:46;;;;;;;14.13;11.13;;;19.20;99.90;;;;;;5053791;28;20053;-69
2023/06/28 12:25:12;;;;;;;12.40;10.30;;;19.20;99.90;;;;;;5052669;28;20052;-68
2023/06/28 12:27:41;;;;;;;13.82;10.00;;;19.20;99.90;;;;;;5053522;28;20045;-68
2023/06/28 12:30:12;;;;;;;12.32;10.43;;;19.30;99.90;;;;;;5052347;28;20055;-69
2023/06/28 12:32:47;;;;;;;12.30;10.32;;;19.40;99.90;;;;;;5053075;28;20049;-69
2023/06/28 12:35:23;;;;;;;14.15;12.40;;;19.40;99.90;;;;;;5053641;28;20045;-69
2023/06/28 12:37:54;;;;;;;15.63;10.82;;;19.30;99.90;;;;;;5053305;28;20063;-68
2023/06/28 12:40:20;;;;;;;13.90;9.90;;;19.90;99.90;;;;;;5052484;28;20055;-68